ADDS METAR Data INFO
IDs: Format: Raw Decoded Include TAF

Data at: 0451 UTC 25 May 2018

METAR for:PANC (Anchorage Intl, AK, US)
Text:PANC 250353Z 16018G26KT 10SM FEW060 SCT110 BKN200 12/02 A2975 RMK AO2 PK WND 16030/0259 SLP074 VIRGA NW DSNT N T01170022 $
Temperature: 11.7°C ( 53°F)
Dewpoint: 2.2°C ( 36°F) [RH = 52%]
Pressure (altimeter):29.75 inches Hg (1007.5 mb) [Sea level pressure: 1007.4 mb]
Winds:from the SSE (160 degrees) at 21 MPH (18 knots; 9.3 m/s) gusting to 30 MPH (26 knots; 13.4 m/s)
Visibility:10 or more sm (16+ km)
Ceiling:20000 feet AGL
Clouds: few clouds at 6000 feet AGL, scattered clouds at 11000 feet AGL, broken clouds at 20000 feet AGL
QC Flag:SOME DATA ABOVE MAY BE INACCURATE!!!"$" is an indication the sensor requires maintenance.
Text:PANC 250253Z 15018G30KT 10SM FEW060 SCT120 BKN200 12/02 A2975 RMK AO2 PK WND 16030/0249 SLP074 TCU AND SH DSNT N T01170022 50000 $
Temperature: 11.7°C ( 53°F)
Dewpoint: 2.2°C ( 36°F) [RH = 52%]
Pressure (altimeter):29.75 inches Hg (1007.5 mb) [Sea level pressure: 1007.4 mb]
Winds:from the SSE (150 degrees) at 21 MPH (18 knots; 9.3 m/s) gusting to 34 MPH (30 knots; 15.4 m/s)
Visibility:10 or more sm (16+ km)
Ceiling:20000 feet AGL
Clouds: few clouds at 6000 feet AGL, scattered clouds at 12000 feet AGL, broken clouds at 20000 feet AGL
QC Flag:SOME DATA ABOVE MAY BE INACCURATE!!!"$" is an indication the sensor requires maintenance.
Text:PANC 250153Z 16018G26KT 10SM FEW060 SCT120 BKN200 12/02 A2975 RMK AO2 PK WND 14028/0136 SLP076 SH DSNT N T01170017 $
Temperature: 11.7°C ( 53°F)
Dewpoint: 1.7°C ( 35°F) [RH = 50%]
Pressure (altimeter):29.75 inches Hg (1007.5 mb) [Sea level pressure: 1007.6 mb]
Winds:from the SSE (160 degrees) at 21 MPH (18 knots; 9.3 m/s) gusting to 30 MPH (26 knots; 13.4 m/s)
Visibility:10 or more sm (16+ km)
Ceiling:20000 feet AGL
Clouds: few clouds at 6000 feet AGL, scattered clouds at 12000 feet AGL, broken clouds at 20000 feet AGL
QC Flag:SOME DATA ABOVE MAY BE INACCURATE!!!"$" is an indication the sensor requires maintenance.
Text:PANC 250053Z 16015G29KT 10SM FEW060 SCT100 BKN200 12/02 A2975 RMK AO2 PK WND 15029/0049 SLP076 SH DSNT N T01220017 $
Temperature: 12.2°C ( 54°F)
Dewpoint: 1.7°C ( 35°F) [RH = 49%]
Pressure (altimeter):29.75 inches Hg (1007.5 mb) [Sea level pressure: 1007.6 mb]
Winds:from the SSE (160 degrees) at 17 MPH (15 knots; 7.7 m/s) gusting to 33 MPH (29 knots; 14.9 m/s)
Visibility:10 or more sm (16+ km)
Ceiling:20000 feet AGL
Clouds: few clouds at 6000 feet AGL, scattered clouds at 10000 feet AGL, broken clouds at 20000 feet AGL
QC Flag:SOME DATA ABOVE MAY BE INACCURATE!!!"$" is an indication the sensor requires maintenance.
Text:PANC 242353Z 17022G30KT 10SM FEW060 SCT100 BKN200 12/02 A2975 RMK AO2 PK WND 17032/2334 SLP074 SH DSNT N T01170022 10133 20100 50001 $
Temperature: 11.7°C ( 53°F)
Dewpoint: 2.2°C ( 36°F) [RH = 52%]
Pressure (altimeter):29.75 inches Hg (1007.5 mb) [Sea level pressure: 1007.4 mb]
Winds:from the S (170 degrees) at 25 MPH (22 knots; 11.3 m/s) gusting to 34 MPH (30 knots; 15.4 m/s)
Visibility:10 or more sm (16+ km)
Ceiling:20000 feet AGL
Clouds: few clouds at 6000 feet AGL, scattered clouds at 10000 feet AGL, broken clouds at 20000 feet AGL
QC Flag:SOME DATA ABOVE MAY BE INACCURATE!!!"$" is an indication the sensor requires maintenance.
Text:PANC 242253Z 16016G26KT 10SM FEW060 SCT100 SCT200 13/02 A2975 RMK AO2 PK WND 17026/2246 SLP075 SH DSNT N T01280022 $
Temperature: 12.8°C ( 55°F)
Dewpoint: 2.2°C ( 36°F) [RH = 48%]
Pressure (altimeter):29.75 inches Hg (1007.5 mb) [Sea level pressure: 1007.5 mb]
Winds:from the SSE (160 degrees) at 18 MPH (16 knots; 8.2 m/s) gusting to 30 MPH (26 knots; 13.4 m/s)
Visibility:10 or more sm (16+ km)
Ceiling:at least 12,000 feet AGL
Clouds: few clouds at 6000 feet AGL, scattered clouds at 10000 feet AGL, scattered clouds at 20000 feet AGL
QC Flag:SOME DATA ABOVE MAY BE INACCURATE!!!"$" is an indication the sensor requires maintenance.

TAF for:PANC (Anchorage Intl, AK, US) issued at 2339 UTC 24 May 2018
Text:PANC 242339Z 2500/2606 15015G25KT P6SM VCSH FEW050 SCT100
Forecast period:0000 to 0900 UTC 25 May 2018
Forecast type:FROM: standard forecast or significant change
Winds:from the SSE (150 degrees) at 17 MPH (15 knots; 7.7 m/s) gusting to 29 MPH (25 knots; 12.9 m/s)
Visibility:6 or more sm (10+ km)
Ceiling:at least 12,000 feet AGL
Clouds: few clouds at 5000 feet AGL, scattered clouds at 10000 feet AGL
Weather:VCSH (showers in vicinity)
Text:FM250900 15008G15KT P6SM FEW060 BKN100
Forecast period:0900 to 1200 UTC 25 May 2018
Forecast type:FROM: standard forecast or significant change
Winds:from the SSE (150 degrees) at 9 MPH (8 knots; 4.1 m/s) gusting to 17 MPH (15 knots; 7.7 m/s)
Visibility:6 or more sm (10+ km)
Ceiling:10000 feet AGL
Clouds: few clouds at 6000 feet AGL, broken clouds at 10000 feet AGL
Text:FM251200 VRB05KT P6SM FEW070 BKN100
Forecast period:1200 UTC 25 May 2018 to 0000 UTC 26 May 2018
Forecast type:FROM: standard forecast or significant change
Winds:variable direction winds at 6 MPH (5 knots; 2.6 m/s)
Visibility:6 or more sm (10+ km)
Ceiling:10000 feet AGL
Clouds: few clouds at 7000 feet AGL, broken clouds at 10000 feet AGL
Text:FM260000 16012KT P6SM FEW050 BKN120
Forecast period:0000 to 0600 UTC 26 May 2018
Forecast type:FROM: standard forecast or significant change
Winds:from the SSE (160 degrees) at 14 MPH (12 knots; 6.2 m/s)
Visibility:6 or more sm (10+ km)
Ceiling:12000 feet AGL
Clouds: few clouds at 5000 feet AGL, broken clouds at 12000 feet AGL